Letzte 24h
Datum & Zeit Temp. Luft-
feuchte
Wind Nieder-
schlag
Luftdruck Tendenz
IN OUT IN OUT Richtung Min. Max.
2018.02.17 22:56 2.2 °C 0.3 °C 69% 88% ONO 62 ° 6 km/h 13 km/h 0.0 mm 1024.40 hPa langsam steigend
23:56 2.2 °C 0.2 °C 69% 88% NNO 21 ° 3 km/h 7 km/h 0.0 mm 1025.40 hPa steigend
2018.02.18 00:55 2.2 °C 0.1 °C 69% 89% NNO 34 ° 6 km/h 11 km/h 0.0 mm 1025.90 hPa steigend
01:56 2.1 °C 0.1 °C 69% 89% NO 45 ° 2 km/h 5 km/h 0.0 mm 1026.40 hPa steigend
02:55 2.1 °C 0.0 °C 69% 90% NO 45 ° 2 km/h 7 km/h 0.0 mm 1026.90 hPa langsam steigend
03:56 2.1 °C -0.1 °C 69% 91% NO 45 ° 1 km/h 7 km/h 0.0 mm 1027.60 hPa steigend
04:56 2.1 °C -0.2 °C 69% 91% NO 45 ° 2 km/h 6 km/h 0.0 mm 1028.00 hPa steigend
05:56 1.9 °C -0.2 °C 70% 91% NO 45 ° 0 km/h 6 km/h 0.0 mm 1028.60 hPa steigend
06:56 1.9 °C -0.2 °C 70% 91% S 180 ° 0 km/h 0 km/h 0.0 mm 1029.30 hPa steigend
07:56 1.9 °C 0.0 °C 70% 90% S 180 ° 0 km/h 0 km/h 0.0 mm 1029.90 hPa steigend
08:56 2.1 °C 0.7 °C 69% 91% S 180 ° 0 km/h 0 km/h 0.0 mm 1030.30 hPa steigend
09:56 2.4 °C 1.5 °C 71% 91% S 180 ° 0 km/h 0 km/h 0.0 mm 1030.70 hPa langsam steigend
10:56 2.9 °C 1.6 °C 72% 91% WNW 290 ° 1 km/h 7 km/h 0.0 mm 1031.40 hPa langsam steigend
11:56 3.3 °C 1.9 °C 76% 83% WNW 292 ° 1 km/h 6 km/h 0.0 mm 1031.60 hPa langsam steigend
12:56 4.0 °C 2.1 °C 76% 78% WNW 297 ° 2 km/h 7 km/h 0.6 mm 1031.30 hPa langsam steigend
13:56 4.2 °C 1.9 °C 76% 79% W 266 ° 2 km/h 7 km/h 1.5 mm 1031.50 hPa gleichbleibend
14:56 4.2 °C 1.9 °C 75% 80% WNW 291 ° 1 km/h 5 km/h 0.6 mm 1031.50 hPa gleichbleibend
15:56 4.2 °C 1.8 °C 75% 79% WSW 248 ° 0 km/h 5 km/h 0.3 mm 1031.60 hPa langsam steigend
16:56 4.0 °C 1.4 °C 74% 79% W 272 ° 2 km/h 6 km/h 0.0 mm 1031.50 hPa gleichbleibend
17:56 3.4 °C 1.2 °C 74% 79% WNW 282 ° 2 km/h 6 km/h 0.0 mm 1031.60 hPa langsam steigend
18:56 3.1 °C 0.9 °C 74% 80% NNO 29 ° 1 km/h 5 km/h 0.0 mm 1031.80 hPa langsam steigend
19:56 2.8 °C 0.5 °C 70% 75% NO 45 ° 0 km/h 4 km/h 0.0 mm 1031.60 hPa langsam steigend
20:55 2.5 °C 0.4 °C 69% 76% S 180 ° 0 km/h 0 km/h 0.0 mm 1031.60 hPa gleichbleibend
21:56 2.4 °C 0.1 °C 69% 78% S 180 ° 0 km/h 1 km/h 0.0 mm 1031.10 hPa langsam fallend

 

Verlauf: letzte 24h
WIND   Windrose
(Klicke ins Bild, um den Hintergrund abzuschalten)
WIND   Windverkauf 2.5h
TEMP   Temperatur 2.5h
Druck   Luftdruck 2.5h
Regen   Luftdruck 2.5h